sensor_id;sensor_type;location;lat;lon;timestamp;P1;durP1;ratioP1;P2;durP2;ratioP2
16480;SDS011;44634;54.110;12.138;2022-12-29T00:01:45;3.53;;;3.23;;
16480;SDS011;44634;54.110;12.138;2022-12-29T00:04:13;5.73;;;3.30;;
16480;SDS011;44634;54.110;12.138;2022-12-29T00:06:42;3.23;;;2.93;;
16480;SDS011;44634;54.110;12.138;2022-12-29T00:09:10;2.97;;;2.77;;
16480;SDS011;44634;54.110;12.138;2022-12-29T00:11:40;3.07;;;2.87;;
16480;SDS011;44634;54.110;12.138;2022-12-29T00:14:08;3.67;;;3.47;;
16480;SDS011;44634;54.110;12.138;2022-12-29T00:16:54;3.67;;;3.03;;
16480;SDS011;44634;54.110;12.138;2022-12-29T00:19:22;5.87;;;3.80;;
16480;SDS011;44634;54.110;12.138;2022-12-29T00:22:08;7.57;;;2.60;;
16480;SDS011;44634;54.110;12.138;2022-12-29T00:24:54;3.70;;;3.40;;
16480;SDS011;44634;54.110;12.138;2022-12-29T00:27:41;4.97;;;3.67;;
16480;SDS011;44634;54.110;12.138;2022-12-29T00:30:33;3.93;;;3.00;;
16480;SDS011;44634;54.110;12.138;2022-12-29T00:33:20;4.47;;;4.13;;
16480;SDS011;44634;54.110;12.138;2022-12-29T00:36:06;3.90;;;3.27;;
16480;SDS011;44634;54.110;12.138;2022-12-29T00:38:39;3.97;;;3.67;;
16480;SDS011;44634;54.110;12.138;2022-12-29T00:41:29;3.27;;;3.07;;
16480;SDS011;44634;54.110;12.138;2022-12-29T00:44:16;4.83;;;3.70;;
16480;SDS011;44634;54.110;12.138;2022-12-29T00:46:44;3.70;;;3.40;;
16480;SDS011;44634;54.110;12.138;2022-12-29T00:49:13;6.07;;;3.80;;
16480;SDS011;44634;54.110;12.138;2022-12-29T00:52:00;3.67;;;3.37;;
16480;SDS011;44634;54.110;12.138;2022-12-29T00:54:31;5.00;;;4.50;;
16480;SDS011;44634;54.110;12.138;2022-12-29T00:57:00;4.43;;;3.90;;
16480;SDS011;44634;54.110;12.138;2022-12-29T00:59:31;3.83;;;3.53;;
16480;SDS011;44634;54.110;12.138;2022-12-29T01:01:59;4.10;;;3.80;;
16480;SDS011;44634;54.110;12.138;2022-12-29T01:04:27;4.67;;;4.37;;
16480;SDS011;44634;54.110;12.138;2022-12-29T01:06:54;3.83;;;3.50;;
16480;SDS011;44634;54.110;12.138;2022-12-29T01:09:22;5.00;;;4.60;;
16480;SDS011;44634;54.110;12.138;2022-12-29T01:12:08;4.53;;;4.13;;
16480;SDS011;44634;54.110;12.138;2022-12-29T01:14:38;4.50;;;4.13;;
16480;SDS011;44634;54.110;12.138;2022-12-29T01:17:06;3.57;;;3.27;;
16480;SDS011;44634;54.110;12.138;2022-12-29T01:19:34;4.20;;;3.90;;
16480;SDS011;44634;54.110;12.138;2022-12-29T01:22:01;4.13;;;3.80;;
16480;SDS011;44634;54.110;12.138;2022-12-29T01:24:29;3.50;;;3.20;;
16480;SDS011;44634;54.110;12.138;2022-12-29T01:26:57;4.07;;;3.73;;
16480;SDS011;44634;54.110;12.138;2022-12-29T01:29:25;4.87;;;3.97;;
16480;SDS011;44634;54.110;12.138;2022-12-29T01:31:54;4.93;;;4.00;;
16480;SDS011;44634;54.110;12.138;2022-12-29T01:34:22;4.20;;;3.80;;
16480;SDS011;44634;54.110;12.138;2022-12-29T01:36:49;3.70;;;3.40;;
16480;SDS011;44634;54.110;12.138;2022-12-29T01:39:17;5.10;;;4.67;;
16480;SDS011;44634;54.110;12.138;2022-12-29T01:41:45;4.87;;;3.30;;
16480;SDS011;44634;54.110;12.138;2022-12-29T01:47:16;5.17;;;3.97;;
16480;SDS011;44634;54.110;12.138;2022-12-29T01:49:51;5.40;;;4.00;;
16480;SDS011;44634;54.110;12.138;2022-12-29T01:52:21;5.47;;;4.47;;
16480;SDS011;44634;54.110;12.138;2022-12-29T01:54:51;4.67;;;4.27;;
16480;SDS011;44634;54.110;12.138;2022-12-29T01:57:21;5.20;;;4.77;;
16480;SDS011;44634;54.110;12.138;2022-12-29T01:59:53;4.33;;;4.03;;
16480;SDS011;44634;54.110;12.138;2022-12-29T02:02:25;4.87;;;4.07;;
16480;SDS011;44634;54.110;12.138;2022-12-29T02:04:58;4.67;;;4.37;;
16480;SDS011;44634;54.110;12.138;2022-12-29T02:07:32;4.97;;;4.40;;
16480;SDS011;44634;54.110;12.138;2022-12-29T02:10:00;5.20;;;4.20;;
16480;SDS011;44634;54.110;12.138;2022-12-29T02:12:30;4.93;;;4.47;;
16480;SDS011;44634;54.110;12.138;2022-12-29T02:14:58;5.47;;;4.60;;
16480;SDS011;44634;54.110;12.138;2022-12-29T02:17:35;4.30;;;3.90;;
16480;SDS011;44634;54.110;12.138;2022-12-29T02:20:26;5.50;;;5.00;;
16480;SDS011;44634;54.110;12.138;2022-12-29T02:23:12;4.43;;;4.13;;
16480;SDS011;44634;54.110;12.138;2022-12-29T02:26:03;5.60;;;4.87;;
16480;SDS011;44634;54.110;12.138;2022-12-29T02:28:59;6.93;;;4.47;;
16480;SDS011;44634;54.110;12.138;2022-12-29T02:31:56;4.13;;;3.73;;
16480;SDS011;44634;54.110;12.138;2022-12-29T02:34:31;4.10;;;3.57;;
16480;SDS011;44634;54.110;12.138;2022-12-29T02:37:06;4.23;;;3.70;;
16480;SDS011;44634;54.110;12.138;2022-12-29T02:39:44;5.13;;;4.00;;
16480;SDS011;44634;54.110;12.138;2022-12-29T02:42:21;3.83;;;3.63;;
16480;SDS011;44634;54.110;12.138;2022-12-29T02:44:52;7.00;;;4.70;;
16480;SDS011;44634;54.110;12.138;2022-12-29T02:47:27;3.93;;;3.63;;
16480;SDS011;44634;54.110;12.138;2022-12-29T02:50:03;5.37;;;4.63;;
16480;SDS011;44634;54.110;12.138;2022-12-29T02:52:36;4.80;;;4.00;;
16480;SDS011;44634;54.110;12.138;2022-12-29T02:55:08;4.37;;;4.07;;
16480;SDS011;44634;54.110;12.138;2022-12-29T02:57:36;5.20;;;4.30;;
16480;SDS011;44634;54.110;12.138;2022-12-29T03:00:05;4.60;;;4.10;;
16480;SDS011;44634;54.110;12.138;2022-12-29T03:05:48;3.87;;;3.57;;
16480;SDS011;44634;54.110;12.138;2022-12-29T03:08:31;3.93;;;3.60;;
16480;SDS011;44634;54.110;12.138;2022-12-29T03:11:09;3.10;;;2.87;;
16480;SDS011;44634;54.110;12.138;2022-12-29T03:13:54;4.40;;;4.00;;
16480;SDS011;44634;54.110;12.138;2022-12-29T03:16:45;4.50;;;4.10;;
16480;SDS011;44634;54.110;12.138;2022-12-29T03:19:16;8.17;;;3.33;;
16480;SDS011;44634;54.110;12.138;2022-12-29T03:21:48;4.17;;;3.77;;
16480;SDS011;44634;54.110;12.138;2022-12-29T03:24:40;3.50;;;3.20;;
16480;SDS011;44634;54.110;12.138;2022-12-29T03:27:12;3.80;;;3.30;;
16480;SDS011;44634;54.110;12.138;2022-12-29T03:29:45;3.63;;;3.33;;
16480;SDS011;44634;54.110;12.138;2022-12-29T03:32:20;4.20;;;3.80;;
16480;SDS011;44634;54.110;12.138;2022-12-29T03:34:52;3.60;;;3.40;;
16480;SDS011;44634;54.110;12.138;2022-12-29T03:37:22;3.63;;;3.33;;
16480;SDS011;44634;54.110;12.138;2022-12-29T03:39:53;2.80;;;2.63;;
16480;SDS011;44634;54.110;12.138;2022-12-29T03:42:23;3.57;;;3.23;;
16480;SDS011;44634;54.110;12.138;2022-12-29T03:44:54;3.10;;;2.90;;
16480;SDS011;44634;54.110;12.138;2022-12-29T03:47:23;2.63;;;2.43;;
16480;SDS011;44634;54.110;12.138;2022-12-29T03:49:53;3.70;;;3.50;;
16480;SDS011;44634;54.110;12.138;2022-12-29T03:52:21;3.47;;;3.17;;
16480;SDS011;44634;54.110;12.138;2022-12-29T03:54:48;3.20;;;2.80;;
16480;SDS011;44634;54.110;12.138;2022-12-29T03:57:16;2.93;;;2.73;;
16480;SDS011;44634;54.110;12.138;2022-12-29T03:59:44;3.27;;;2.70;;
16480;SDS011;44634;54.110;12.138;2022-12-29T04:02:12;3.90;;;3.60;;
16480;SDS011;44634;54.110;12.138;2022-12-29T04:04:40;3.10;;;2.90;;
16480;SDS011;44634;54.110;12.138;2022-12-29T04:07:09;2.33;;;2.03;;
16480;SDS011;44634;54.110;12.138;2022-12-29T04:09:37;2.90;;;2.67;;
16480;SDS011;44634;54.110;12.138;2022-12-29T04:12:04;3.13;;;2.83;;
16480;SDS011;44634;54.110;12.138;2022-12-29T04:14:32;3.40;;;3.20;;
16480;SDS011;44634;54.110;12.138;2022-12-29T04:17:00;2.10;;;2.00;;
16480;SDS011;44634;54.110;12.138;2022-12-29T04:19:28;3.17;;;2.97;;
16480;SDS011;44634;54.110;12.138;2022-12-29T04:21:56;2.97;;;2.77;;
16480;SDS011;44634;54.110;12.138;2022-12-29T04:24:25;2.93;;;2.73;;
16480;SDS011;44634;54.110;12.138;2022-12-29T04:26:52;2.20;;;2.00;;
16480;SDS011;44634;54.110;12.138;2022-12-29T04:29:20;2.23;;;2.13;;
16480;SDS011;44634;54.110;12.138;2022-12-29T04:31:48;3.33;;;2.50;;
16480;SDS011;44634;54.110;12.138;2022-12-29T04:34:16;2.67;;;2.57;;
16480;SDS011;44634;54.110;12.138;2022-12-29T04:36:44;2.70;;;2.60;;
16480;SDS011;44634;54.110;12.138;2022-12-29T04:39:11;2.70;;;2.60;;
16480;SDS011;44634;54.110;12.138;2022-12-29T04:41:41;3.83;;;2.33;;
16480;SDS011;44634;54.110;12.138;2022-12-29T04:44:08;2.30;;;2.10;;
16480;SDS011;44634;54.110;12.138;2022-12-29T04:46:36;2.27;;;2.17;;
16480;SDS011;44634;54.110;12.138;2022-12-29T04:49:04;2.50;;;2.30;;
16480;SDS011;44634;54.110;12.138;2022-12-29T04:51:35;2.33;;;2.23;;
16480;SDS011;44634;54.110;12.138;2022-12-29T04:54:03;2.70;;;2.60;;
16480;SDS011;44634;54.110;12.138;2022-12-29T04:56:30;2.83;;;2.70;;
16480;SDS011;44634;54.110;12.138;2022-12-29T04:59:00;2.77;;;2.00;;
16480;SDS011;44634;54.110;12.138;2022-12-29T05:01:27;2.27;;;2.17;;
16480;SDS011;44634;54.110;12.138;2022-12-29T05:03:55;2.13;;;2.03;;
16480;SDS011;44634;54.110;12.138;2022-12-29T05:06:23;2.17;;;2.07;;
16480;SDS011;44634;54.110;12.138;2022-12-29T05:08:51;2.13;;;2.03;;
16480;SDS011;44634;54.110;12.138;2022-12-29T05:11:19;2.13;;;1.97;;
16480;SDS011;44634;54.110;12.138;2022-12-29T05:13:47;2.40;;;2.30;;
16480;SDS011;44634;54.110;12.138;2022-12-29T05:16:16;2.67;;;2.17;;
16480;SDS011;44634;54.110;12.138;2022-12-29T05:18:44;2.10;;;2.00;;
16480;SDS011;44634;54.110;12.138;2022-12-29T05:21:11;2.37;;;2.17;;
16480;SDS011;44634;54.110;12.138;2022-12-29T05:23:39;2.50;;;2.40;;
16480;SDS011;44634;54.110;12.138;2022-12-29T05:26:07;2.00;;;1.90;;
16480;SDS011;44634;54.110;12.138;2022-12-29T05:28:35;2.00;;;1.93;;
16480;SDS011;44634;54.110;12.138;2022-12-29T05:31:02;2.10;;;2.00;;
16480;SDS011;44634;54.110;12.138;2022-12-29T05:33:32;3.70;;;2.27;;
16480;SDS011;44634;54.110;12.138;2022-12-29T05:36:03;2.73;;;2.20;;
16480;SDS011;44634;54.110;12.138;2022-12-29T05:38:31;1.63;;;1.63;;
16480;SDS011;44634;54.110;12.138;2022-12-29T05:40:59;1.50;;;1.50;;
16480;SDS011;44634;54.110;12.138;2022-12-29T05:43:27;1.83;;;1.70;;
16480;SDS011;44634;54.110;12.138;2022-12-29T05:45:54;1.47;;;1.47;;
16480;SDS011;44634;54.110;12.138;2022-12-29T05:48:23;1.87;;;1.77;;
16480;SDS011;44634;54.110;12.138;2022-12-29T05:50:52;1.73;;;1.70;;
16480;SDS011;44634;54.110;12.138;2022-12-29T05:53:20;1.43;;;1.43;;
16480;SDS011;44634;54.110;12.138;2022-12-29T05:55:48;2.20;;;1.70;;
16480;SDS011;44634;54.110;12.138;2022-12-29T05:58:16;1.30;;;1.30;;
16480;SDS011;44634;54.110;12.138;2022-12-29T06:00:44;1.60;;;1.60;;
16480;SDS011;44634;54.110;12.138;2022-12-29T06:03:12;1.50;;;1.40;;
16480;SDS011;44634;54.110;12.138;2022-12-29T06:05:40;1.30;;;1.30;;
16480;SDS011;44634;54.110;12.138;2022-12-29T06:08:09;1.83;;;1.73;;
16480;SDS011;44634;54.110;12.138;2022-12-29T06:10:37;1.60;;;1.50;;
16480;SDS011;44634;54.110;12.138;2022-12-29T06:13:05;1.40;;;1.33;;
16480;SDS011;44634;54.110;12.138;2022-12-29T06:15:33;3.00;;;1.60;;
16480;SDS011;44634;54.110;12.138;2022-12-29T06:18:01;1.57;;;1.57;;
16480;SDS011;44634;54.110;12.138;2022-12-29T06:20:29;1.50;;;1.50;;
16480;SDS011;44634;54.110;12.138;2022-12-29T06:22:56;2.50;;;1.70;;
16480;SDS011;44634;54.110;12.138;2022-12-29T06:25:25;2.33;;;1.70;;
16480;SDS011;44634;54.110;12.138;2022-12-29T06:27:54;1.60;;;1.50;;
16480;SDS011;44634;54.110;12.138;2022-12-29T06:30:22;1.17;;;1.17;;
16480;SDS011;44634;54.110;12.138;2022-12-29T06:32:50;2.50;;;1.87;;
16480;SDS011;44634;54.110;12.138;2022-12-29T06:35:18;1.43;;;1.43;;
16480;SDS011;44634;54.110;12.138;2022-12-29T06:37:46;1.07;;;1.07;;
16480;SDS011;44634;54.110;12.138;2022-12-29T06:40:13;1.40;;;1.30;;
16480;SDS011;44634;54.110;12.138;2022-12-29T06:42:43;1.17;;;1.17;;
16480;SDS011;44634;54.110;12.138;2022-12-29T06:45:11;2.43;;;1.37;;
16480;SDS011;44634;54.110;12.138;2022-12-29T06:47:38;1.33;;;1.27;;
16480;SDS011;44634;54.110;12.138;2022-12-29T06:50:06;0.97;;;0.97;;
16480;SDS011;44634;54.110;12.138;2022-12-29T06:52:35;1.80;;;1.40;;
16480;SDS011;44634;54.110;12.138;2022-12-29T06:55:03;1.43;;;1.30;;
16480;SDS011;44634;54.110;12.138;2022-12-29T06:57:31;1.30;;;1.30;;
16480;SDS011;44634;54.110;12.138;2022-12-29T07:00:00;1.60;;;1.60;;
16480;SDS011;44634;54.110;12.138;2022-12-29T07:02:28;1.63;;;1.50;;
16480;SDS011;44634;54.110;12.138;2022-12-29T07:04:56;1.83;;;1.73;;
16480;SDS011;44634;54.110;12.138;2022-12-29T07:07:24;1.73;;;1.73;;
16480;SDS011;44634;54.110;12.138;2022-12-29T07:09:52;1.80;;;1.70;;
16480;SDS011;44634;54.110;12.138;2022-12-29T07:12:19;1.60;;;1.57;;
16480;SDS011;44634;54.110;12.138;2022-12-29T07:14:48;2.23;;;1.87;;
16480;SDS011;44634;54.110;12.138;2022-12-29T07:17:17;2.60;;;1.57;;
16480;SDS011;44634;54.110;12.138;2022-12-29T07:19:44;1.70;;;1.70;;
16480;SDS011;44634;54.110;12.138;2022-12-29T07:22:12;1.57;;;1.57;;
16480;SDS011;44634;54.110;12.138;2022-12-29T07:24:40;1.90;;;1.80;;
16480;SDS011;44634;54.110;12.138;2022-12-29T07:27:09;1.60;;;1.50;;
16480;SDS011;44634;54.110;12.138;2022-12-29T07:29:37;2.23;;;2.03;;
16480;SDS011;44634;54.110;12.138;2022-12-29T07:32:05;1.70;;;1.60;;
16480;SDS011;44634;54.110;12.138;2022-12-29T07:34:34;1.67;;;1.67;;
16480;SDS011;44634;54.110;12.138;2022-12-29T07:37:02;1.93;;;1.73;;
16480;SDS011;44634;54.110;12.138;2022-12-29T07:39:30;2.00;;;1.30;;
16480;SDS011;44634;54.110;12.138;2022-12-29T07:41:58;1.50;;;1.50;;
16480;SDS011;44634;54.110;12.138;2022-12-29T07:44:31;1.50;;;1.50;;
16480;SDS011;44634;54.110;12.138;2022-12-29T07:46:59;3.47;;;1.40;;
16480;SDS011;44634;54.110;12.138;2022-12-29T07:49:27;1.57;;;1.50;;
16480;SDS011;44634;54.110;12.138;2022-12-29T07:51:56;3.00;;;1.50;;
16480;SDS011;44634;54.110;12.138;2022-12-29T07:54:24;2.20;;;1.47;;
16480;SDS011;44634;54.110;12.138;2022-12-29T07:56:52;1.73;;;1.43;;
16480;SDS011;44634;54.110;12.138;2022-12-29T07:59:20;2.50;;;1.63;;
16480;SDS011;44634;54.110;12.138;2022-12-29T08:01:47;1.90;;;1.50;;
16480;SDS011;44634;54.110;12.138;2022-12-29T08:04:15;1.97;;;1.77;;
16480;SDS011;44634;54.110;12.138;2022-12-29T08:06:43;1.43;;;1.43;;
16480;SDS011;44634;54.110;12.138;2022-12-29T08:09:13;1.70;;;1.57;;
16480;SDS011;44634;54.110;12.138;2022-12-29T08:11:48;1.60;;;1.50;;
16480;SDS011;44634;54.110;12.138;2022-12-29T08:14:16;1.30;;;1.30;;
16480;SDS011;44634;54.110;12.138;2022-12-29T08:16:44;2.17;;;1.40;;
16480;SDS011;44634;54.110;12.138;2022-12-29T08:19:12;1.37;;;1.37;;
16480;SDS011;44634;54.110;12.138;2022-12-29T08:21:40;1.10;;;1.10;;
16480;SDS011;44634;54.110;12.138;2022-12-29T08:24:08;1.50;;;1.40;;
16480;SDS011;44634;54.110;12.138;2022-12-29T08:26:38;1.57;;;1.47;;
16480;SDS011;44634;54.110;12.138;2022-12-29T08:29:06;1.60;;;1.50;;
16480;SDS011;44634;54.110;12.138;2022-12-29T08:31:33;1.30;;;1.13;;
16480;SDS011;44634;54.110;12.138;2022-12-29T08:34:01;1.20;;;1.20;;
16480;SDS011;44634;54.110;12.138;2022-12-29T08:36:30;3.23;;;1.40;;
16480;SDS011;44634;54.110;12.138;2022-12-29T08:38:58;1.47;;;1.40;;
16480;SDS011;44634;54.110;12.138;2022-12-29T08:41:25;1.03;;;1.03;;
16480;SDS011;44634;54.110;12.138;2022-12-29T08:43:54;1.50;;;1.13;;
16480;SDS011;44634;54.110;12.138;2022-12-29T08:46:22;1.20;;;1.20;;
16480;SDS011;44634;54.110;12.138;2022-12-29T08:48:50;0.90;;;0.90;;
16480;SDS011;44634;54.110;12.138;2022-12-29T08:51:18;1.10;;;1.10;;
16480;SDS011;44634;54.110;12.138;2022-12-29T08:53:50;1.47;;;1.40;;
16480;SDS011;44634;54.110;12.138;2022-12-29T08:56:18;1.20;;;1.20;;
16480;SDS011;44634;54.110;12.138;2022-12-29T08:58:46;1.10;;;1.10;;
16480;SDS011;44634;54.110;12.138;2022-12-29T09:01:15;1.00;;;1.00;;
16480;SDS011;44634;54.110;12.138;2022-12-29T09:03:43;1.20;;;1.20;;
16480;SDS011;44634;54.110;12.138;2022-12-29T09:06:31;1.10;;;1.10;;
16480;SDS011;44634;54.110;12.138;2022-12-29T09:09:05;1.23;;;1.20;;
16480;SDS011;44634;54.110;12.138;2022-12-29T09:11:33;1.13;;;1.13;;
16480;SDS011;44634;54.110;12.138;2022-12-29T09:14:01;1.00;;;1.00;;
16480;SDS011;44634;54.110;12.138;2022-12-29T09:16:31;1.10;;;1.10;;
16480;SDS011;44634;54.110;12.138;2022-12-29T09:18:59;1.17;;;1.17;;
16480;SDS011;44634;54.110;12.138;2022-12-29T09:21:27;1.37;;;1.37;;
16480;SDS011;44634;54.110;12.138;2022-12-29T09:23:54;0.90;;;0.90;;
16480;SDS011;44634;54.110;12.138;2022-12-29T09:26:22;1.10;;;1.00;;
16480;SDS011;44634;54.110;12.138;2022-12-29T09:28:50;1.13;;;1.13;;
16480;SDS011;44634;54.110;12.138;2022-12-29T09:31:18;1.73;;;1.20;;
16480;SDS011;44634;54.110;12.138;2022-12-29T09:33:47;0.70;;;0.70;;
16480;SDS011;44634;54.110;12.138;2022-12-29T09:36:15;1.17;;;1.03;;
16480;SDS011;44634;54.110;12.138;2022-12-29T09:38:43;3.63;;;1.10;;
16480;SDS011;44634;54.110;12.138;2022-12-29T09:41:12;3.13;;;1.00;;
16480;SDS011;44634;54.110;12.138;2022-12-29T09:43:49;0.83;;;0.83;;
16480;SDS011;44634;54.110;12.138;2022-12-29T09:46:26;0.97;;;0.80;;
16480;SDS011;44634;54.110;12.138;2022-12-29T09:48:58;4.10;;;1.67;;
16480;SDS011;44634;54.110;12.138;2022-12-29T09:51:36;1.00;;;1.00;;
16480;SDS011;44634;54.110;12.138;2022-12-29T09:54:14;1.07;;;1.07;;
16480;SDS011;44634;54.110;12.138;2022-12-29T09:56:50;1.40;;;1.40;;
16480;SDS011;44634;54.110;12.138;2022-12-29T09:59:20;3.40;;;1.10;;
16480;SDS011;44634;54.110;12.138;2022-12-29T10:01:53;1.23;;;1.13;;
16480;SDS011;44634;54.110;12.138;2022-12-29T10:04:27;2.13;;;1.37;;
16480;SDS011;44634;54.110;12.138;2022-12-29T10:06:56;0.97;;;0.97;;
16480;SDS011;44634;54.110;12.138;2022-12-29T10:09:52;0.90;;;0.90;;
16480;SDS011;44634;54.110;12.138;2022-12-29T10:12:28;1.20;;;1.20;;
16480;SDS011;44634;54.110;12.138;2022-12-29T10:15:03;1.53;;;1.40;;
16480;SDS011;44634;54.110;12.138;2022-12-29T10:17:39;0.80;;;0.80;;
16480;SDS011;44634;54.110;12.138;2022-12-29T10:20:17;0.87;;;0.87;;
16480;SDS011;44634;54.110;12.138;2022-12-29T10:23:05;0.63;;;0.63;;
16480;SDS011;44634;54.110;12.138;2022-12-29T10:25:46;0.90;;;0.90;;
16480;SDS011;44634;54.110;12.138;2022-12-29T10:28:17;0.73;;;0.73;;
16480;SDS011;44634;54.110;12.138;2022-12-29T10:30:48;1.30;;;1.00;;
16480;SDS011;44634;54.110;12.138;2022-12-29T10:33:19;3.30;;;0.90;;
16480;SDS011;44634;54.110;12.138;2022-12-29T10:35:52;1.33;;;0.50;;
16480;SDS011;44634;54.110;12.138;2022-12-29T10:38:22;2.77;;;0.97;;
16480;SDS011;44634;54.110;12.138;2022-12-29T10:40:56;0.53;;;0.50;;
16480;SDS011;44634;54.110;12.138;2022-12-29T10:43:27;1.00;;;1.00;;
16480;SDS011;44634;54.110;12.138;2022-12-29T10:45:57;0.97;;;0.60;;
16480;SDS011;44634;54.110;12.138;2022-12-29T10:48:30;0.77;;;0.77;;
16480;SDS011;44634;54.110;12.138;2022-12-29T10:51:00;0.70;;;0.70;;
16480;SDS011;44634;54.110;12.138;2022-12-29T10:53:32;0.50;;;0.50;;
16480;SDS011;44634;54.110;12.138;2022-12-29T10:56:09;1.27;;;0.80;;
16480;SDS011;44634;54.110;12.138;2022-12-29T10:58:46;1.80;;;0.80;;
16480;SDS011;44634;54.110;12.138;2022-12-29T11:01:16;0.80;;;0.80;;
16480;SDS011;44634;54.110;12.138;2022-12-29T11:03:48;3.13;;;0.80;;
16480;SDS011;44634;54.110;12.138;2022-12-29T11:06:27;0.57;;;0.57;;
16480;SDS011;44634;54.110;12.138;2022-12-29T11:08:57;0.70;;;0.70;;
16480;SDS011;44634;54.110;12.138;2022-12-29T11:11:32;1.17;;;0.50;;
16480;SDS011;44634;54.110;12.138;2022-12-29T11:14:07;0.70;;;0.70;;
16480;SDS011;44634;54.110;12.138;2022-12-29T11:16:39;1.47;;;0.50;;
16480;SDS011;44634;54.110;12.138;2022-12-29T11:19:20;0.60;;;0.60;;
16480;SDS011;44634;54.110;12.138;2022-12-29T11:21:51;0.50;;;0.50;;
16480;SDS011;44634;54.110;12.138;2022-12-29T11:24:20;1.30;;;0.80;;
16480;SDS011;44634;54.110;12.138;2022-12-29T11:26:49;1.70;;;1.60;;
16480;SDS011;44634;54.110;12.138;2022-12-29T11:29:24;0.93;;;0.90;;
16480;SDS011;44634;54.110;12.138;2022-12-29T11:31:54;0.50;;;0.50;;
16480;SDS011;44634;54.110;12.138;2022-12-29T11:34:26;0.73;;;0.73;;
16480;SDS011;44634;54.110;12.138;2022-12-29T11:37:00;1.47;;;0.53;;
16480;SDS011;44634;54.110;12.138;2022-12-29T11:39:30;1.40;;;0.53;;
16480;SDS011;44634;54.110;12.138;2022-12-29T11:42:01;0.90;;;0.90;;
16480;SDS011;44634;54.110;12.138;2022-12-29T11:44:32;0.60;;;0.60;;
16480;SDS011;44634;54.110;12.138;2022-12-29T11:47:05;0.60;;;0.60;;
16480;SDS011;44634;54.110;12.138;2022-12-29T11:49:39;3.70;;;0.80;;
16480;SDS011;44634;54.110;12.138;2022-12-29T11:52:08;0.77;;;0.60;;
16480;SDS011;44634;54.110;12.138;2022-12-29T11:54:36;0.73;;;0.60;;
16480;SDS011;44634;54.110;12.138;2022-12-29T11:57:09;0.90;;;0.63;;
16480;SDS011;44634;54.110;12.138;2022-12-29T11:59:42;1.37;;;0.50;;
16480;SDS011;44634;54.110;12.138;2022-12-29T12:02:25;1.70;;;0.80;;
16480;SDS011;44634;54.110;12.138;2022-12-29T12:05:13;0.63;;;0.63;;
16480;SDS011;44634;54.110;12.138;2022-12-29T12:07:49;2.07;;;0.77;;
16480;SDS011;44634;54.110;12.138;2022-12-29T12:10:22;0.80;;;0.73;;
16480;SDS011;44634;54.110;12.138;2022-12-29T12:12:56;0.57;;;0.57;;
16480;SDS011;44634;54.110;12.138;2022-12-29T12:15:35;0.77;;;0.77;;
16480;SDS011;44634;54.110;12.138;2022-12-29T12:18:13;1.33;;;1.20;;
16480;SDS011;44634;54.110;12.138;2022-12-29T12:20:48;2.07;;;0.60;;
16480;SDS011;44634;54.110;12.138;2022-12-29T12:23:27;0.90;;;0.70;;
16480;SDS011;44634;54.110;12.138;2022-12-29T12:26:04;2.57;;;1.10;;
16480;SDS011;44634;54.110;12.138;2022-12-29T12:28:40;2.47;;;0.80;;
16480;SDS011;44634;54.110;12.138;2022-12-29T12:31:17;2.47;;;0.60;;
16480;SDS011;44634;54.110;12.138;2022-12-29T12:33:53;0.87;;;0.70;;
16480;SDS011;44634;54.110;12.138;2022-12-29T12:39:25;0.80;;;0.60;;
16480;SDS011;44634;54.110;12.138;2022-12-29T12:42:00;1.13;;;0.70;;
16480;SDS011;44634;54.110;12.138;2022-12-29T12:44:43;1.30;;;0.90;;
16480;SDS011;44634;54.110;12.138;2022-12-29T12:47:26;2.33;;;0.73;;
16480;SDS011;44634;54.110;12.138;2022-12-29T12:50:26;1.17;;;1.07;;
16480;SDS011;44634;54.110;12.138;2022-12-29T12:53:23;1.27;;;0.90;;
16480;SDS011;44634;54.110;12.138;2022-12-29T12:56:15;0.90;;;0.87;;
16480;SDS011;44634;54.110;12.138;2022-12-29T12:58:55;1.97;;;0.83;;
16480;SDS011;44634;54.110;12.138;2022-12-29T13:01:38;3.13;;;0.87;;
16480;SDS011;44634;54.110;12.138;2022-12-29T13:04:32;1.33;;;0.80;;
16480;SDS011;44634;54.110;12.138;2022-12-29T13:07:16;1.00;;;1.00;;
16480;SDS011;44634;54.110;12.138;2022-12-29T13:09:58;1.00;;;0.90;;
16480;SDS011;44634;54.110;12.138;2022-12-29T13:12:41;2.67;;;1.20;;
16480;SDS011;44634;54.110;12.138;2022-12-29T13:15:19;1.67;;;0.80;;
16480;SDS011;44634;54.110;12.138;2022-12-29T13:17:58;1.27;;;0.83;;
16480;SDS011;44634;54.110;12.138;2022-12-29T13:20:33;2.93;;;1.17;;
16480;SDS011;44634;54.110;12.138;2022-12-29T13:23:07;1.70;;;0.87;;
16480;SDS011;44634;54.110;12.138;2022-12-29T13:25:44;1.50;;;1.13;;
16480;SDS011;44634;54.110;12.138;2022-12-29T13:28:19;1.10;;;0.90;;
16480;SDS011;44634;54.110;12.138;2022-12-29T13:30:53;2.97;;;0.93;;
16480;SDS011;44634;54.110;12.138;2022-12-29T13:33:29;0.83;;;0.80;;
16480;SDS011;44634;54.110;12.138;2022-12-29T13:36:09;2.27;;;1.30;;
16480;SDS011;44634;54.110;12.138;2022-12-29T13:38:46;0.73;;;0.70;;
16480;SDS011;44634;54.110;12.138;2022-12-29T13:41:20;1.60;;;0.80;;
16480;SDS011;44634;54.110;12.138;2022-12-29T13:43:55;2.57;;;0.80;;
16480;SDS011;44634;54.110;12.138;2022-12-29T13:46:27;2.43;;;1.13;;
16480;SDS011;44634;54.110;12.138;2022-12-29T13:48:58;1.10;;;0.90;;
16480;SDS011;44634;54.110;12.138;2022-12-29T13:51:32;4.33;;;1.13;;
16480;SDS011;44634;54.110;12.138;2022-12-29T13:54:04;4.00;;;1.03;;
16480;SDS011;44634;54.110;12.138;2022-12-29T13:56:41;0.70;;;0.60;;
16480;SDS011;44634;54.110;12.138;2022-12-29T13:59:20;1.37;;;0.87;;
16480;SDS011;44634;54.110;12.138;2022-12-29T14:01:54;1.00;;;0.87;;
16480;SDS011;44634;54.110;12.138;2022-12-29T14:04:27;3.13;;;0.70;;
16480;SDS011;44634;54.110;12.138;2022-12-29T14:06:59;1.83;;;0.83;;
16480;SDS011;44634;54.110;12.138;2022-12-29T14:15:21;1.30;;;0.83;;
16480;SDS011;44634;54.110;12.138;2022-12-29T14:18:01;1.40;;;0.70;;
16480;SDS011;44634;54.110;12.138;2022-12-29T14:20:32;3.43;;;0.87;;
16480;SDS011;44634;54.110;12.138;2022-12-29T14:23:14;2.97;;;1.00;;
16480;SDS011;44634;54.110;12.138;2022-12-29T14:25:57;2.73;;;0.70;;
16480;SDS011;44634;54.110;12.138;2022-12-29T14:28:27;2.90;;;1.20;;
16480;SDS011;44634;54.110;12.138;2022-12-29T14:30:58;5.83;;;0.90;;
16480;SDS011;44634;54.110;12.138;2022-12-29T14:33:27;1.93;;;1.00;;
16480;SDS011;44634;54.110;12.138;2022-12-29T14:38:47;1.17;;;1.00;;
16480;SDS011;44634;54.110;12.138;2022-12-29T14:41:17;0.70;;;0.67;;
16480;SDS011;44634;54.110;12.138;2022-12-29T14:43:52;2.80;;;0.73;;
16480;SDS011;44634;54.110;12.138;2022-12-29T14:46:24;1.20;;;1.00;;
16480;SDS011;44634;54.110;12.138;2022-12-29T14:48:56;1.27;;;0.80;;
16480;SDS011;44634;54.110;12.138;2022-12-29T14:51:29;1.60;;;0.70;;
16480;SDS011;44634;54.110;12.138;2022-12-29T14:53:59;1.10;;;0.97;;
16480;SDS011;44634;54.110;12.138;2022-12-29T14:56:27;2.43;;;1.00;;
16480;SDS011;44634;54.110;12.138;2022-12-29T14:58:58;1.93;;;0.90;;
16480;SDS011;44634;54.110;12.138;2022-12-29T15:01:35;1.27;;;0.87;;
16480;SDS011;44634;54.110;12.138;2022-12-29T15:04:14;1.17;;;0.90;;
16480;SDS011;44634;54.110;12.138;2022-12-29T15:06:44;0.70;;;0.70;;
16480;SDS011;44634;54.110;12.138;2022-12-29T15:09:17;0.97;;;0.97;;
16480;SDS011;44634;54.110;12.138;2022-12-29T15:11:53;2.20;;;1.13;;
16480;SDS011;44634;54.110;12.138;2022-12-29T15:14:30;1.00;;;0.80;;
16480;SDS011;44634;54.110;12.138;2022-12-29T15:17:02;1.23;;;0.70;;
16480;SDS011;44634;54.110;12.138;2022-12-29T15:19:37;0.80;;;0.80;;
16480;SDS011;44634;54.110;12.138;2022-12-29T15:22:05;1.63;;;0.77;;